Time;durP1;ratioP1;P1;durP2;ratioP2;P2;SDS_P1;SDS_P2;PMS_P1;PMS_P2;Temp;Humidity;BMP_temperature;BMP_pressure;BME280_temperature;BME280_humidity;BME280_pressure;Samples;Min_cycle;Max_cycle;Signal;HPM_P1;HPM_P2
2024/03/25 00:00:14;;;;;;;3.80;0.85;;;23.00;50.00;;;;;;5021449;28;20423;-85
2024/03/25 00:02:41;;;;;;;1.27;0.60;;;23.00;50.10;;;;;;5026619;28;20057;-85
2024/03/25 00:05:10;;;;;;;1.23;0.55;;;23.00;50.10;;;;;;5024405;28;20057;-85
2024/03/25 00:07:37;;;;;;;1.38;0.60;;;23.00;50.10;;;;;;5029370;28;20114;-86
2024/03/25 00:10:08;;;;;;;1.17;0.70;;;23.00;50.10;;;;;;5036602;28;20053;-85
2024/03/25 00:12:37;;;;;;;1.42;0.80;;;23.00;50.10;;;;;;5037903;28;20052;-85
2024/03/25 00:15:03;;;;;;;1.73;0.73;;;23.00;50.20;;;;;;5031092;28;20068;-85
2024/03/25 00:17:29;;;;;;;1.35;1.00;;;23.00;50.20;;;;;;5032303;28;20052;-86
2024/03/25 00:19:55;;;;;;;1.58;0.88;;;23.00;50.30;;;;;;5013898;28;20050;-85
2024/03/25 00:22:25;;;;;;;1.77;0.90;;;22.90;50.20;;;;;;5002672;28;20408;-85
2024/03/25 00:24:51;;;;;;;1.92;0.80;;;23.00;50.40;;;;;;5037176;28;20048;-85
2024/03/25 00:27:18;;;;;;;2.15;0.98;;;22.90;50.30;;;;;;5031460;28;20799;-85
2024/03/25 00:29:44;;;;;;;2.03;1.00;;;22.90;50.40;;;;;;5027929;28;20048;-86
2024/03/25 00:32:10;;;;;;;1.85;0.80;;;22.90;50.40;;;;;;5020267;28;20781;-85
2024/03/25 00:34:37;;;;;;;1.65;0.93;;;22.90;50.40;;;;;;5028559;28;20044;-86
2024/03/25 00:37:03;;;;;;;1.13;0.70;;;22.90;50.50;;;;;;5024092;28;20057;-85
2024/03/25 00:39:32;;;;;;;1.83;0.65;;;22.90;50.50;;;;;;5021377;28;20068;-85
2024/03/25 00:41:58;;;;;;;1.60;0.77;;;22.90;50.50;;;;;;5036396;28;20078;-85
2024/03/25 00:44:24;;;;;;;1.98;0.80;;;22.90;50.60;;;;;;5025629;28;20053;-85
2024/03/25 00:46:51;;;;;;;1.20;0.70;;;22.90;51.10;;;;;;5032462;28;20438;-85
2024/03/25 00:49:17;;;;;;;2.45;1.08;;;22.90;50.60;;;;;;5033955;28;20060;-85
2024/03/25 00:51:43;;;;;;;1.80;0.90;;;22.90;50.50;;;;;;5027064;28;20075;-85
2024/03/25 00:54:09;;;;;;;1.70;0.80;;;22.90;50.60;;;;;;5024946;28;20057;-85
2024/03/25 00:56:35;;;;;;;1.50;0.90;;;22.90;50.60;;;;;;5036353;28;20057;-85
2024/03/25 00:59:03;;;;;;;2.22;0.88;;;22.90;50.60;;;;;;5017306;28;20045;-85
2024/03/25 01:01:30;;;;;;;1.60;0.60;;;22.90;50.60;;;;;;5025809;28;20075;-85
2024/03/25 01:03:56;;;;;;;1.20;0.80;;;22.90;50.60;;;;;;5044140;28;20488;-86
2024/03/25 01:06:22;;;;;;;1.10;0.57;;;22.90;50.60;;;;;;5016045;28;20053;-84
2024/03/25 01:08:49;;;;;;;1.15;0.82;;;22.80;50.50;;;;;;5033530;28;20067;-85
2024/03/25 01:11:15;;;;;;;1.05;0.75;;;22.80;50.50;;;;;;5035860;28;20049;-85
2024/03/25 01:13:46;;;;;;;1.00;0.60;;;22.90;50.60;;;;;;5040875;28;20042;-86
2024/03/25 01:16:12;;;;;;;1.30;0.50;;;22.80;50.50;;;;;;5021011;28;20045;-86
2024/03/25 01:18:38;;;;;;;1.20;0.70;;;22.80;50.60;;;;;;5016244;28;20052;-86
2024/03/25 01:21:04;;;;;;;1.08;0.70;;;22.80;50.60;;;;;;5020846;28;20475;-85
2024/03/25 01:23:30;;;;;;;1.02;0.70;;;22.80;50.50;;;;;;5042307;28;20049;-85
2024/03/25 01:25:56;;;;;;;1.38;0.60;;;22.80;50.50;;;;;;5016544;28;20058;-83
2024/03/25 01:28:22;;;;;;;2.05;0.88;;;22.80;50.60;;;;;;5027134;28;20057;-85
2024/03/25 01:30:49;;;;;;;2.10;0.95;;;22.80;50.50;;;;;;5025706;28;20107;-85
2024/03/25 01:33:15;;;;;;;0.95;0.55;;;22.80;50.40;;;;;;5033646;28;20417;-85
2024/03/25 01:35:41;;;;;;;1.70;0.90;;;22.80;50.50;;;;;;5025041;28;20124;-86
2024/03/25 01:38:07;;;;;;;1.40;0.75;;;22.80;50.50;;;;;;5030375;28;20049;-85
2024/03/25 01:40:34;;;;;;;1.52;0.65;;;22.80;50.50;;;;;;5019060;28;20069;-86
2024/03/25 01:43:02;;;;;;;1.00;0.50;;;22.80;50.50;;;;;;5023340;28;20057;-85
2024/03/25 01:45:33;;;;;;;0.90;0.70;;;22.80;50.50;;;;;;5024609;28;20060;-86
2024/03/25 01:48:03;;;;;;;1.83;0.63;;;22.80;50.50;;;;;;5052120;28;20052;-86
2024/03/25 01:50:33;;;;;;;0.80;0.57;;;22.80;50.50;;;;;;5016162;28;20057;-85
2024/03/25 01:52:59;;;;;;;0.93;0.60;;;22.80;50.50;;;;;;5025319;28;20060;-85
2024/03/25 01:55:28;;;;;;;1.10;0.60;;;22.80;50.50;;;;;;5028230;28;20057;-85
2024/03/25 01:57:54;;;;;;;0.85;0.50;;;22.70;50.40;;;;;;5015564;28;20054;-85
2024/03/25 02:00:23;;;;;;;1.02;0.50;;;22.70;50.50;;;;;;5033025;28;20057;-86
2024/03/25 02:02:50;;;;;;;1.35;0.70;;;22.70;50.50;;;;;;5030235;28;20079;-85
2024/03/25 02:05:18;;;;;;;1.17;0.50;;;22.70;50.50;;;;;;5012456;28;20054;-86
2024/03/25 02:07:45;;;;;;;1.15;0.68;;;22.70;50.40;;;;;;5019328;28;20057;-85
2024/03/25 02:10:14;;;;;;;1.55;0.60;;;22.70;50.40;;;;;;5024181;28;20849;-85
2024/03/25 02:12:45;;;;;;;1.63;0.57;;;22.70;50.40;;;;;;5043018;28;20076;-86
2024/03/25 02:15:14;;;;;;;1.25;0.70;;;22.70;50.50;;;;;;5033220;28;20048;-85
2024/03/25 02:17:43;;;;;;;2.15;0.50;;;22.70;50.50;;;;;;5034010;28;20049;-85
2024/03/25 02:20:10;;;;;;;0.90;0.60;;;22.70;50.50;;;;;;5047614;28;20122;-85
2024/03/25 02:22:36;;;;;;;1.58;0.52;;;22.70;50.60;;;;;;5027683;28;20131;-86
2024/03/25 02:25:08;;;;;;;1.13;0.60;;;22.70;50.50;;;;;;5059381;28;20053;-86
2024/03/25 02:27:35;;;;;;;1.30;0.57;;;22.70;50.50;;;;;;5051357;28;20049;-85
2024/03/25 02:30:09;;;;;;;1.20;0.57;;;22.70;50.40;;;;;;5051317;28;20053;-85
2024/03/25 02:32:35;;;;;;;1.05;0.55;;;22.70;50.50;;;;;;5037184;28;20053;-86
2024/03/25 02:35:05;;;;;;;1.10;0.50;;;22.70;50.50;;;;;;5039542;28;20049;-85
2024/03/25 02:37:34;;;;;;;0.57;0.43;;;22.70;50.50;;;;;;5038997;28;20095;-86
2024/03/25 02:40:05;;;;;;;1.20;0.40;;;22.70;50.50;;;;;;5037837;28;20050;-85
2024/03/25 02:42:33;;;;;;;0.75;0.35;;;22.70;50.50;;;;;;5022612;28;20045;-85
2024/03/25 02:45:00;;;;;;;1.02;0.60;;;22.70;51.10;;;;;;5038567;28;20057;-86
2024/03/25 02:47:26;;;;;;;2.03;0.70;;;22.70;50.50;;;;;;5055210;28;20053;-85
2024/03/25 02:49:52;;;;;;;1.27;0.65;;;22.70;50.50;;;;;;5038446;28;20399;-85
2024/03/25 02:52:19;;;;;;;0.70;0.60;;;22.70;50.50;;;;;;5025440;28;20045;-85
2024/03/25 02:54:45;;;;;;;1.42;0.43;;;22.60;50.40;;;;;;5032784;28;20408;-86
2024/03/25 02:57:11;;;;;;;0.73;0.40;;;22.60;50.40;;;;;;5035057;28;20053;-85
2024/03/25 02:59:37;;;;;;;2.05;0.90;;;22.60;50.40;;;;;;5018669;28;20095;-86
2024/03/25 03:02:03;;;;;;;0.93;0.50;;;22.70;50.60;;;;;;5022473;28;20135;-86
2024/03/25 03:04:29;;;;;;;1.23;0.60;;;22.60;50.40;;;;;;5034335;28;20415;-85
2024/03/25 03:06:56;;;;;;;1.00;0.55;;;22.60;50.40;;;;;;5034788;28;20514;-86
2024/03/25 03:09:22;;;;;;;2.03;0.60;;;22.60;50.40;;;;;;5030377;28;20064;-85
2024/03/25 03:11:50;;;;;;;1.30;0.60;;;22.60;50.40;;;;;;5038140;28;20049;-86
2024/03/25 03:14:20;;;;;;;0.88;0.60;;;22.60;50.40;;;;;;5023658;28;20428;-86
2024/03/25 03:16:46;;;;;;;0.75;0.45;;;22.60;50.50;;;;;;5035040;28;20058;-85
2024/03/25 03:19:15;;;;;;;0.70;0.50;;;22.60;50.40;;;;;;5029383;28;20053;-85
2024/03/25 03:21:41;;;;;;;1.10;0.50;;;22.60;50.40;;;;;;5035436;28;20053;-86
2024/03/25 03:24:08;;;;;;;0.50;0.40;;;22.60;50.40;;;;;;5025441;28;20507;-85
2024/03/25 03:26:33;;;;;;;0.75;0.38;;;22.60;50.40;;;;;;5018322;28;20053;-86
2024/03/25 03:28:59;;;;;;;0.70;0.40;;;22.60;50.40;;;;;;5032530;28;20458;-86
2024/03/25 03:31:26;;;;;;;0.93;0.52;;;22.60;50.40;;;;;;5040801;28;20095;-85
2024/03/25 03:33:52;;;;;;;1.10;0.40;;;22.50;50.40;;;;;;5026967;28;20496;-85
2024/03/25 03:36:20;;;;;;;0.55;0.43;;;22.50;50.40;;;;;;5036964;28;20082;-85
2024/03/25 03:38:46;;;;;;;0.40;0.30;;;22.50;50.40;;;;;;5014487;28;20076;-86
2024/03/25 03:41:13;;;;;;;0.90;0.40;;;22.50;50.40;;;;;;4998018;28;20069;-86
2024/03/25 03:43:39;;;;;;;1.30;0.77;;;22.50;50.40;;;;;;5015895;28;20451;-85
2024/03/25 03:46:04;;;;;;;0.98;0.68;;;22.50;50.50;;;;;;5054123;28;20060;-85
2024/03/25 03:48:31;;;;;;;1.63;0.60;;;22.50;50.40;;;;;;5037461;28;20055;-86
2024/03/25 03:50:57;;;;;;;1.33;0.75;;;22.50;50.40;;;;;;5037454;28;20080;-85
2024/03/25 03:53:23;;;;;;;0.90;0.60;;;22.50;50.40;;;;;;5037947;28;20049;-85
2024/03/25 03:55:57;;;;;;;0.95;0.43;;;22.50;50.40;;;;;;5033271;28;20053;-86
2024/03/25 03:58:23;;;;;;;0.85;0.43;;;22.50;50.40;;;;;;5017771;28;20119;-85
2024/03/25 04:00:50;;;;;;;0.50;0.30;;;22.50;50.40;;;;;;5019931;28;20097;-85
2024/03/25 04:03:16;;;;;;;0.70;0.40;;;22.50;50.40;;;;;;5033506;28;20061;-85
2024/03/25 04:05:42;;;;;;;0.57;0.38;;;22.50;50.40;;;;;;5035552;28;20054;-85
2024/03/25 04:08:08;;;;;;;1.20;0.68;;;22.50;50.40;;;;;;5054213;28;20203;-85
2024/03/25 04:10:35;;;;;;;1.00;0.45;;;22.50;50.40;;;;;;5053620;28;20053;-86
2024/03/25 04:13:02;;;;;;;0.75;0.40;;;22.50;50.50;;;;;;5028953;28;20050;-85
2024/03/25 04:15:28;;;;;;;0.82;0.50;;;22.50;50.50;;;;;;5036218;28;20393;-85
2024/03/25 04:17:54;;;;;;;0.85;0.45;;;22.50;50.50;;;;;;5017272;28;20052;-85
2024/03/25 04:20:20;;;;;;;1.00;0.60;;;22.50;50.50;;;;;;5021836;28;20054;-85
2024/03/25 04:22:47;;;;;;;0.50;0.40;;;22.50;50.50;;;;;;5013803;28;20057;-86
2024/03/25 04:25:19;;;;;;;0.88;0.40;;;22.50;50.50;;;;;;5013544;28;20062;-86
2024/03/25 04:27:45;;;;;;;0.98;0.40;;;22.40;50.40;;;;;;5028939;28;20061;-85
2024/03/25 04:30:11;;;;;;;0.75;0.50;;;22.40;50.40;;;;;;5049715;28;20084;-85
2024/03/25 04:32:39;;;;;;;1.05;0.40;;;22.40;50.40;;;;;;5025715;28;20057;-85
2024/03/25 04:35:06;;;;;;;0.82;0.52;;;22.40;50.40;;;;;;5024920;28;20057;-85
2024/03/25 04:37:36;;;;;;;0.85;0.50;;;22.50;50.50;;;;;;5023172;28;20069;-86
2024/03/25 04:40:03;;;;;;;1.05;0.50;;;22.40;50.40;;;;;;5035975;28;20059;-86
2024/03/25 04:42:31;;;;;;;0.68;0.43;;;22.40;50.40;;;;;;5016596;28;20049;-85
2024/03/25 04:44:57;;;;;;;0.82;0.60;;;22.40;50.40;;;;;;5022314;28;20049;-85
2024/03/25 04:47:23;;;;;;;0.50;0.38;;;22.40;50.40;;;;;;5028984;28;20052;-85
2024/03/25 04:49:49;;;;;;;0.60;0.30;;;22.40;50.40;;;;;;5032567;28;20404;-86
2024/03/25 04:52:23;;;;;;;0.93;0.40;;;22.40;50.40;;;;;;5024661;28;20112;-85
2024/03/25 04:54:49;;;;;;;0.73;0.40;;;22.40;50.40;;;;;;5030043;28;20053;-85
2024/03/25 04:57:15;;;;;;;0.93;0.38;;;22.50;50.40;;;;;;5017030;28;20053;-85
2024/03/25 04:59:41;;;;;;;1.00;0.47;;;22.50;50.40;;;;;;5016555;28;20056;-84
2024/03/25 05:02:08;;;;;;;0.73;0.32;;;22.50;50.40;;;;;;5032422;28;20057;-85
2024/03/25 05:04:34;;;;;;;1.13;0.50;;;22.50;50.40;;;;;;5016422;28;20108;-85
2024/03/25 05:07:00;;;;;;;0.75;0.40;;;22.60;50.40;;;;;;5027584;28;20487;-85
2024/03/25 05:09:25;;;;;;;0.63;0.40;;;22.60;50.40;;;;;;5021945;28;20055;-85
2024/03/25 05:11:51;;;;;;;0.30;0.20;;;22.60;50.40;;;;;;5049436;28;20049;-85
2024/03/25 05:14:17;;;;;;;0.68;0.30;;;22.70;50.40;;;;;;5035257;28;20436;-85
2024/03/25 05:16:43;;;;;;;1.60;0.55;;;22.70;50.40;;;;;;5039234;28;20057;-85
2024/03/25 05:19:09;;;;;;;0.40;0.30;;;22.70;50.40;;;;;;5038503;28;20049;-85
2024/03/25 05:21:35;;;;;;;0.93;0.30;;;22.80;50.40;;;;;;5035961;28;20513;-85
2024/03/25 05:24:01;;;;;;;0.47;0.32;;;22.80;50.30;;;;;;5018424;28;20053;-85
2024/03/25 05:26:27;;;;;;;0.52;0.32;;;22.80;50.20;;;;;;5030573;28;20484;-86
2024/03/25 05:28:57;;;;;;;0.70;0.40;;;22.80;50.20;;;;;;5030879;28;20068;-84
2024/03/25 05:31:23;;;;;;;0.63;0.32;;;22.80;50.10;;;;;;5032090;28;20065;-85
2024/03/25 05:33:50;;;;;;;1.13;0.70;;;22.80;50.10;;;;;;5019148;28;20064;-85
2024/03/25 05:36:16;;;;;;;0.28;0.20;;;22.90;50.20;;;;;;5025789;28;20056;-85
2024/03/25 05:38:42;;;;;;;0.60;0.30;;;22.90;50.20;;;;;;5021757;28;20053;-85
2024/03/25 05:41:09;;;;;;;0.70;0.40;;;22.90;50.10;;;;;;5012528;28;20061;-85
2024/03/25 05:43:36;;;;;;;0.47;0.32;;;22.90;50.10;;;;;;5030394;28;20060;-85
2024/03/25 05:46:02;;;;;;;0.40;0.32;;;22.90;50.10;;;;;;5015971;28;20061;-85
2024/03/25 05:48:31;;;;;;;1.42;0.30;;;22.90;50.10;;;;;;5017392;28;20057;-85
2024/03/25 05:51:05;;;;;;;0.88;0.50;;;22.90;50.20;;;;;;5017037;28;20064;-83
2024/03/25 05:53:32;;;;;;;1.50;0.70;;;22.90;50.40;;;;;;5055137;28;20049;-85
2024/03/25 05:56:01;;;;;;;1.13;0.40;;;22.90;50.20;;;;;;5026406;28;20438;-85
2024/03/25 05:58:27;;;;;;;3.70;0.73;;;23.00;49.50;;;;;;5026972;28;20048;-85
2024/03/25 06:00:53;;;;;;;1.40;0.60;;;23.00;50.00;;;;;;5023834;28;20519;-85
2024/03/25 06:03:20;;;;;;;1.80;0.55;;;23.00;50.00;;;;;;5035278;28;20053;-86
2024/03/25 06:05:46;;;;;;;4.30;0.60;;;23.00;50.20;;;;;;5035586;28;20063;-86
2024/03/25 06:08:24;;;;;;;1.20;0.40;;;23.00;50.20;;;;;;5033089;28;20496;-85
2024/03/25 06:10:51;;;;;;;1.88;0.40;;;23.00;50.00;;;;;;5015875;28;20053;-86
2024/03/25 06:13:17;;;;;;;1.35;0.63;;;23.00;50.00;;;;;;5016061;28;20053;-85
2024/03/25 06:15:43;;;;;;;1.02;0.40;;;23.00;50.50;;;;;;5038926;28;20119;-86
2024/03/25 06:18:09;;;;;;;3.65;0.57;;;23.00;50.50;;;;;;5039216;28;20127;-86
2024/03/25 06:20:35;;;;;;;2.92;0.55;;;23.00;50.50;;;;;;5046657;28;20054;-86
2024/03/25 06:23:04;;;;;;;0.82;0.50;;;22.90;50.60;;;;;;5014794;28;20083;-86
2024/03/25 06:25:30;;;;;;;3.92;0.50;;;23.00;50.50;;;;;;5019479;28;20061;-86
2024/03/25 06:27:56;;;;;;;1.67;0.50;;;22.90;50.30;;;;;;5049577;28;20053;-86
2024/03/25 06:35:52;;;;;;;1.90;0.57;;;22.90;50.00;;;;;;5047944;28;20057;-83
2024/03/25 06:38:19;;;;;;;5.70;0.63;;;22.80;50.10;;;;;;5025188;28;20064;-83
2024/03/25 06:40:48;;;;;;;4.10;0.50;;;22.80;50.30;;;;;;5038736;28;20053;-83
2024/03/25 06:43:16;;;;;;;3.70;0.50;;;22.80;50.40;;;;;;5029051;28;20127;-82
2024/03/25 06:45:42;;;;;;;1.85;0.93;;;22.80;50.40;;;;;;5021408;28;20056;-83
2024/03/25 06:48:08;;;;;;;1.98;0.52;;;22.80;50.40;;;;;;5026659;28;20045;-83
2024/03/25 06:50:33;;;;;;;3.50;0.50;;;22.80;50.40;;;;;;5036625;28;20060;-83
2024/03/25 06:52:59;;;;;;;6.13;0.50;;;22.80;50.50;;;;;;5021101;28;20411;-83
2024/03/25 06:55:28;;;;;;;0.95;0.50;;;22.80;50.60;;;;;;5020547;28;20049;-82
2024/03/25 06:57:54;;;;;;;1.08;0.40;;;22.80;50.80;;;;;;5034052;28;20111;-82
2024/03/25 07:00:22;;;;;;;4.63;0.60;;;22.70;50.80;;;;;;5028004;28;20071;-82
2024/03/25 07:02:51;;;;;;;2.67;0.60;;;22.70;50.60;;;;;;5034480;28;20049;-82
2024/03/25 07:05:17;;;;;;;1.92;0.70;;;22.70;50.60;;;;;;5024172;28;20053;-83
2024/03/25 07:07:42;;;;;;;5.82;0.47;;;22.70;50.80;;;;;;5030603;28;20134;-82
2024/03/25 07:10:08;;;;;;;2.15;0.50;;;22.70;50.80;;;;;;5029500;28;20110;-82
2024/03/25 07:12:34;;;;;;;2.35;0.85;;;22.70;50.80;;;;;;5045320;28;20833;-82
2024/03/25 07:15:00;;;;;;;1.90;0.70;;;22.60;50.90;;;;;;5050350;28;20107;-82
2024/03/25 07:17:27;;;;;;;5.60;0.73;;;22.60;50.90;;;;;;5022506;28;20057;-82
2024/03/25 07:19:52;;;;;;;2.83;0.65;;;22.60;50.90;;;;;;5032480;28;20063;-82
2024/03/25 07:22:19;;;;;;;5.32;0.45;;;22.60;50.90;;;;;;5025615;28;20393;-82
2024/03/25 07:24:45;;;;;;;1.13;0.60;;;22.60;50.90;;;;;;5031206;28;20049;-82
2024/03/25 07:27:11;;;;;;;5.18;0.57;;;22.60;51.00;;;;;;5029798;28;20050;-82
2024/03/25 07:29:37;;;;;;;1.85;0.45;;;22.60;50.60;;;;;;5020633;28;20041;-85
2024/03/25 07:32:04;;;;;;;4.07;0.75;;;22.50;49.40;;;;;;5032374;28;20059;-85
2024/03/25 07:34:30;;;;;;;9.73;1.00;;;22.50;50.30;;;;;;5038820;28;20049;-85
2024/03/25 07:36:56;;;;;;;0.90;0.40;;;22.50;49.30;;;;;;5017606;28;20046;-85
2024/03/25 07:39:24;;;;;;;5.22;0.80;;;22.40;49.00;;;;;;5051873;28;20523;-85
2024/03/25 07:41:50;;;;;;;2.75;0.55;;;22.40;48.90;;;;;;5022554;28;20119;-81
2024/03/25 07:44:16;;;;;;;9.18;0.80;;;22.40;48.60;;;;;;5019038;28;20053;-85
2024/03/25 07:46:42;;;;;;;5.25;0.55;;;22.40;47.10;;;;;;5037458;28;20053;-86
2024/03/25 07:49:11;;;;;;;4.00;0.82;;;22.40;48.70;;;;;;5027758;28;20063;-81
2024/03/25 07:51:39;;;;;;;9.55;1.10;;;22.40;48.00;;;;;;5017201;28;20057;-85
2024/03/25 07:54:05;;;;;;;4.70;1.00;;;22.40;47.80;;;;;;4997969;28;20056;-90
2024/03/25 07:56:32;;;;;;;4.93;1.02;;;22.40;48.70;;;;;;5004416;28;20046;-87
2024/03/25 07:58:59;;;;;;;7.07;0.88;;;22.40;49.10;;;;;;5034614;28;20111;-86
2024/03/25 08:01:25;;;;;;;9.63;0.90;;;22.40;49.50;;;;;;5018258;28;20053;-86
2024/03/25 08:03:51;;;;;;;10.07;1.08;;;22.40;49.60;;;;;;5023255;28;20045;-86
2024/03/25 08:06:17;;;;;;;5.43;1.15;;;22.40;49.50;;;;;;5035005;28;20057;-85
2024/03/25 08:08:43;;;;;;;3.63;0.82;;;22.40;49.50;;;;;;5026201;28;20111;-86
2024/03/25 08:11:10;;;;;;;9.10;0.93;;;22.40;49.50;;;;;;5054656;28;20087;-86
2024/03/25 08:13:36;;;;;;;5.15;0.90;;;22.40;49.50;;;;;;5026691;28;20131;-85
2024/03/25 08:16:02;;;;;;;4.10;0.60;;;22.40;49.50;;;;;;5038134;28;20041;-86
2024/03/25 08:18:28;;;;;;;4.70;0.77;;;22.40;49.60;;;;;;5038493;28;20049;-86
2024/03/25 08:20:54;;;;;;;2.38;0.75;;;22.40;49.70;;;;;;5038127;28;20056;-86
2024/03/25 08:23:20;;;;;;;5.97;1.20;;;22.40;49.70;;;;;;5070872;28;20462;-86
2024/03/25 08:25:46;;;;;;;1.42;0.60;;;22.40;49.70;;;;;;5031235;28;20128;-86
2024/03/25 08:28:12;;;;;;;6.82;0.82;;;22.40;49.70;;;;;;5031797;28;20439;-86
2024/03/25 08:30:38;;;;;;;3.33;0.60;;;22.40;49.80;;;;;;5022743;28;20060;-83
2024/03/25 08:33:04;;;;;;;4.57;0.90;;;22.40;49.80;;;;;;5039757;28;20049;-84
2024/03/25 08:35:30;;;;;;;6.22;0.93;;;22.40;50.10;;;;;;5035551;28;20049;-81
2024/03/25 08:37:56;;;;;;;2.92;0.80;;;22.30;49.90;;;;;;5062059;28;20464;-80
2024/03/25 08:40:22;;;;;;;4.95;0.90;;;22.30;50.20;;;;;;5043881;28;20059;-81
2024/03/25 08:42:48;;;;;;;6.05;1.17;;;22.30;50.40;;;;;;5025832;28;20045;-80
2024/03/25 08:45:14;;;;;;;2.38;0.63;;;22.30;50.30;;;;;;5023427;28;20049;-81
2024/03/25 08:47:42;;;;;;;5.00;0.63;;;22.20;50.30;;;;;;5044146;28;20072;-81
2024/03/25 08:50:11;;;;;;;5.57;1.13;;;22.20;50.40;;;;;;5046638;28;20103;-81
2024/03/25 08:52:39;;;;;;;2.90;0.70;;;22.20;50.60;;;;;;5030471;28;20042;-81
2024/03/25 08:55:06;;;;;;;1.45;0.73;;;22.20;50.70;;;;;;5040458;28;20408;-82
2024/03/25 08:57:34;;;;;;;4.80;0.77;;;22.20;50.70;;;;;;5029046;28;20048;-81
2024/03/25 09:00:00;;;;;;;5.05;0.82;;;22.20;50.60;;;;;;5043108;28;20118;-81
2024/03/25 09:02:28;;;;;;;6.10;0.90;;;22.20;50.80;;;;;;5022227;28;20057;-81
2024/03/25 09:04:54;;;;;;;4.10;1.20;;;22.20;51.00;;;;;;5033431;28;20053;-81
2024/03/25 09:07:20;;;;;;;16.52;1.10;;;22.10;50.80;;;;;;5029963;28;20095;-81
2024/03/25 09:12:31;;;;;;;2.15;0.60;;;22.10;50.90;;;;;;5036801;28;20116;-80
2024/03/25 09:14:57;;;;;;;7.45;0.77;;;22.10;51.00;;;;;;5026132;28;20049;-81
2024/03/25 09:17:24;;;;;;;4.15;0.70;;;22.10;50.90;;;;;;5040754;28;20148;-81
2024/03/25 09:19:51;;;;;;;1.73;0.70;;;22.10;51.10;;;;;;5024572;28;20053;-81
2024/03/25 09:22:17;;;;;;;1.77;0.70;;;22.10;50.90;;;;;;5042856;28;20057;-81
2024/03/25 09:24:45;;;;;;;2.47;0.80;;;22.10;51.00;;;;;;5044661;28;20064;-81
2024/03/25 09:27:11;;;;;;;2.90;0.75;;;22.10;51.00;;;;;;5021814;28;20413;-80
2024/03/25 09:29:37;;;;;;;3.72;0.70;;;22.10;51.30;;;;;;5031073;28;20053;-80
2024/03/25 09:32:03;;;;;;;4.90;0.70;;;22.10;51.10;;;;;;5016676;28;20060;-81
2024/03/25 09:34:29;;;;;;;2.55;0.85;;;22.10;51.20;;;;;;5019499;28;20071;-80
2024/03/25 09:36:54;;;;;;;3.17;0.80;;;22.10;51.30;;;;;;5023874;28;20041;-80
2024/03/25 09:39:22;;;;;;;1.83;0.60;;;22.00;51.30;;;;;;5041120;28;20056;-80
2024/03/25 09:41:53;;;;;;;2.35;0.60;;;22.00;51.30;;;;;;5037198;28;20054;-80
2024/03/25 09:44:21;;;;;;;4.25;0.80;;;22.10;51.40;;;;;;5030427;28;20055;-81
2024/03/25 09:46:49;;;;;;;4.70;0.85;;;22.00;51.30;;;;;;5044239;28;20060;-81
2024/03/25 09:49:17;;;;;;;2.42;0.93;;;22.00;51.90;;;;;;5038536;28;20496;-80
2024/03/25 09:51:44;;;;;;;4.38;0.80;;;22.00;51.30;;;;;;5023367;28;20048;-79
2024/03/25 09:54:12;;;;;;;4.82;0.85;;;22.00;51.40;;;;;;5023315;28;20487;-81
2024/03/25 09:56:39;;;;;;;12.30;0.85;;;22.00;51.70;;;;;;5017603;28;20484;-83
2024/03/25 09:59:05;;;;;;;5.53;0.80;;;22.10;52.20;;;;;;5034634;28;20053;-83
2024/03/25 10:01:34;;;;;;;3.83;0.75;;;22.00;51.70;;;;;;5021932;28;20053;-83
2024/03/25 10:04:00;;;;;;;4.25;0.90;;;22.00;51.50;;;;;;5018524;28;20060;-80
2024/03/25 10:06:28;;;;;;;3.60;0.80;;;22.10;51.50;;;;;;5032393;28;20053;-84
2024/03/25 10:08:57;;;;;;;3.85;0.70;;;22.00;51.20;;;;;;4998138;28;20057;-84
2024/03/25 10:11:23;;;;;;;10.90;1.25;;;22.10;51.20;;;;;;5034772;28;20401;-84
2024/03/25 10:13:49;;;;;;;2.25;0.60;;;22.00;51.30;;;;;;5016487;28;20080;-84
2024/03/25 10:16:16;;;;;;;5.95;1.00;;;22.00;51.30;;;;;;5024664;28;20052;-84
2024/03/25 10:18:42;;;;;;;6.00;0.60;;;22.00;51.30;;;;;;5021410;28;20054;-84
2024/03/25 10:21:13;;;;;;;1.50;0.70;;;22.00;51.70;;;;;;5025704;28;20433;-82
2024/03/25 10:23:43;;;;;;;5.78;1.33;;;22.00;51.20;;;;;;5042370;28;20056;-82
2024/03/25 10:26:11;;;;;;;3.90;0.90;;;22.00;50.90;;;;;;5045398;28;20060;-83
2024/03/25 10:28:38;;;;;;;3.10;1.00;;;22.00;51.00;;;;;;5032748;28;20054;-89
2024/03/25 10:31:05;;;;;;;4.07;0.80;;;22.10;51.30;;;;;;5018170;28;20049;-89
2024/03/25 10:33:33;;;;;;;4.22;0.93;;;22.10;51.50;;;;;;5024395;28;20054;-80
2024/03/25 10:36:03;;;;;;;5.65;1.00;;;22.00;51.30;;;;;;5039050;28;20103;-80
2024/03/25 10:38:30;;;;;;;7.20;1.27;;;22.00;50.50;;;;;;5029774;28;20053;-81
2024/03/25 10:40:57;;;;;;;4.13;0.90;;;22.00;50.10;;;;;;5025093;28;20053;-81
2024/03/25 10:43:29;;;;;;;4.82;0.88;;;22.00;50.30;;;;;;5019532;28;20401;-81
2024/03/25 10:45:59;;;;;;;1.63;0.80;;;22.10;50.20;;;;;;5019721;28;20488;-81
2024/03/25 10:48:30;;;;;;;5.20;1.30;;;22.10;50.00;;;;;;5042660;28;20054;-81
2024/03/25 10:50:58;;;;;;;3.30;0.80;;;22.10;50.20;;;;;;5075536;28;20057;-81
2024/03/25 10:53:24;;;;;;;5.25;0.77;;;22.10;49.90;;;;;;5027252;28;20050;-81
2024/03/25 10:55:53;;;;;;;4.03;1.00;;;22.10;49.70;;;;;;5029272;28;20068;-81
2024/03/25 10:58:22;;;;;;;2.88;1.00;;;22.10;49.90;;;;;;5029076;28;20050;-80
2024/03/25 11:00:50;;;;;;;4.32;0.90;;;22.10;49.70;;;;;;5041766;28;20064;-81
2024/03/25 11:03:17;;;;;;;8.73;1.00;;;22.10;49.80;;;;;;5040011;28;20064;-80
2024/03/25 11:05:43;;;;;;;3.80;1.13;;;22.10;48.30;;;;;;5026340;28;20427;-80
2024/03/25 11:08:13;;;;;;;3.47;1.23;;;22.10;48.00;;;;;;5026997;28;20496;-81
2024/03/25 11:10:44;;;;;;;6.63;1.05;;;22.10;49.20;;;;;;5030379;28;20076;-80
2024/03/25 11:13:18;;;;;;;1.70;0.65;;;22.10;49.70;;;;;;5027462;28;20057;-81
2024/03/25 11:15:45;;;;;;;2.85;0.63;;;22.10;49.90;;;;;;5024806;28;20053;-80
2024/03/25 11:18:16;;;;;;;3.50;0.95;;;22.10;50.10;;;;;;5006986;28;20053;-87
2024/03/25 11:20:45;;;;;;;6.75;1.10;;;22.10;50.40;;;;;;4998725;28;20050;-87
2024/03/25 11:23:13;;;;;;;3.95;1.58;;;22.10;50.60;;;;;;5043844;28;20772;-87
2024/03/25 11:25:42;;;;;;;11.30;1.42;;;22.00;50.90;;;;;;5021778;28;20057;-80
2024/03/25 11:28:09;;;;;;;19.13;1.35;;;22.00;50.90;;;;;;5024318;28;20048;-81
2024/03/25 11:30:37;;;;;;;2.35;0.90;;;22.00;50.70;;;;;;5030170;28;20041;-81
2024/03/25 11:33:06;;;;;;;5.75;0.73;;;22.00;50.50;;;;;;5029854;28;20049;-81
2024/03/25 11:35:39;;;;;;;5.05;0.90;;;22.00;50.50;;;;;;5029654;28;20061;-81
2024/03/25 11:38:07;;;;;;;6.43;1.00;;;22.00;50.50;;;;;;5030572;28;20049;-81
2024/03/25 11:40:37;;;;;;;5.22;1.13;;;22.00;50.50;;;;;;5027434;28;20053;-81
2024/03/25 11:43:06;;;;;;;5.70;0.93;;;22.00;50.60;;;;;;5031049;28;20053;-80
2024/03/25 11:45:32;;;;;;;7.07;0.95;;;22.10;50.70;;;;;;5026086;28;20046;-81
2024/03/25 11:47:58;;;;;;;4.90;1.08;;;22.10;50.70;;;;;;5040146;28;20530;-81
2024/03/25 11:50:26;;;;;;;3.47;0.80;;;22.10;50.60;;;;;;5024161;28;20053;-81
2024/03/25 11:52:52;;;;;;;6.68;1.13;;;22.10;50.70;;;;;;5059945;28;20045;-81
2024/03/25 11:55:20;;;;;;;3.22;0.75;;;22.10;50.70;;;;;;5025492;28;20045;-81
2024/03/25 11:57:48;;;;;;;5.30;0.90;;;22.10;50.60;;;;;;5031311;28;20054;-81
2024/03/25 12:00:14;;;;;;;2.47;0.85;;;22.10;50.60;;;;;;5024892;28;20053;-81
2024/03/25 12:02:46;;;;;;;4.22;0.90;;;22.10;50.60;;;;;;5030775;28;20537;-81
2024/03/25 12:05:12;;;;;;;0.95;0.55;;;22.10;50.60;;;;;;5028121;28;20492;-81
2024/03/25 12:07:38;;;;;;;5.85;0.95;;;22.10;50.60;;;;;;5024480;28;20768;-81
2024/03/25 12:12:50;;;;;;;3.85;0.80;;;22.10;50.60;;;;;;5036128;28;20060;-81
2024/03/25 12:15:16;;;;;;;3.92;0.70;;;22.10;50.60;;;;;;5026147;28;20487;-81
2024/03/25 12:17:43;;;;;;;3.53;0.90;;;22.10;50.60;;;;;;5024248;28;20111;-81
2024/03/25 12:20:12;;;;;;;2.78;0.90;;;22.10;50.50;;;;;;5031040;28;20480;-81
2024/03/25 12:22:38;;;;;;;1.85;0.70;;;22.10;50.60;;;;;;5025651;28;20053;-81
2024/03/25 12:25:06;;;;;;;2.90;0.70;;;22.10;50.60;;;;;;5025318;28;20111;-81
2024/03/25 12:27:32;;;;;;;3.88;0.88;;;22.10;50.60;;;;;;5075683;28;20052;-80
2024/03/25 12:30:19;;;;;;;3.22;0.88;;;22.10;50.60;;;;;;5041687;28;20057;-81
2024/03/25 12:32:46;;;;;;;2.63;0.73;;;22.10;50.60;;;;;;5051925;28;20081;-80
2024/03/25 12:35:15;;;;;;;3.80;0.75;;;22.10;50.60;;;;;;5023883;28;20073;-81
2024/03/25 12:37:45;;;;;;;2.20;0.93;;;22.10;50.60;;;;;;5031128;28;20053;-80
2024/03/25 12:40:14;;;;;;;3.95;0.90;;;22.10;50.60;;;;;;5017952;28;20057;-80
2024/03/25 12:42:40;;;;;;;2.70;0.75;;;22.10;50.60;;;;;;5020224;28;20049;-80
2024/03/25 12:45:09;;;;;;;4.53;0.75;;;22.10;50.60;;;;;;5030316;28;20519;-81
2024/03/25 12:47:35;;;;;;;7.18;0.80;;;22.10;50.60;;;;;;5023938;28;20056;-81
2024/03/25 12:50:01;;;;;;;3.63;0.95;;;22.10;50.60;;;;;;5023245;28;20062;-80
2024/03/25 12:52:28;;;;;;;2.75;0.60;;;22.10;50.60;;;;;;5023405;28;20049;-81
2024/03/25 12:54:54;;;;;;;3.80;0.65;;;22.20;50.60;;;;;;5023754;28;20053;-80